Time;durP1;ratioP1;P1;durP2;ratioP2;P2;SDS_P1;SDS_P2;PMS_P1;PMS_P2;Temp;Humidity;BMP_temperature;BMP_pressure;BME280_temperature;BME280_humidity;BME280_pressure;Samples;Min_cycle;Max_cycle;Signal;HPM_P1;HPM_P2
2021/10/16 00:02:25;;;;;;;;;;;;;;;5.25;71.04;100138.78;5091427;28;19977;-69
2021/10/16 00:04:55;;;;;;;;;;;;;;;5.17;71.29;100143.66;5090703;28;19931;-69
2021/10/16 00:07:22;;;;;;;;;;;;;;;5.10;71.56;100144.94;5088462;28;21080;-69
2021/10/16 00:09:50;;;;;;;;;;;;;;;5.03;71.78;100148.88;5090130;28;19969;-69
2021/10/16 00:12:18;;;;;;;;;;;;;;;4.96;72.20;100151.03;5091496;28;19930;-69
2021/10/16 00:14:46;;;;;;;;;;;;;;;4.95;72.05;100146.66;5090013;28;20280;-69
2021/10/16 00:17:14;;;;;;;;;;;;;;;4.47;72.13;100083.63;5085093;28;20406;-69
2021/10/16 00:19:42;;;;;;;;;;;;;;;4.85;72.35;100150.72;5090155;28;20001;-69
2021/10/16 00:22:11;;;;;;;;;;;;;;;4.82;72.27;100147.38;5088363;28;19955;-69
2021/10/16 00:24:39;;;;;;;;;;;;;;;4.84;72.85;100148.16;5090349;28;20205;-69
2021/10/16 00:27:07;;;;;;;;;;;;;;;4.83;72.96;100149.09;5090301;28;19924;-69
2021/10/16 00:29:35;;;;;;;;;;;;;;;4.84;72.81;100159.66;5089923;28;20284;-69
2021/10/16 00:32:03;;;;;;;;;;;;;;;4.83;72.46;100149.09;5089946;28;19932;-69
2021/10/16 00:34:31;;;;;;;;;;;;;;;4.84;72.52;100146.34;5087009;28;20345;-69
2021/10/16 00:36:59;;;;;;;;;;;;;;;4.84;72.74;100143.69;5086958;28;20318;-69
2021/10/16 00:39:28;;;;;;;;;;;;;;;4.77;72.73;100144.09;5084907;28;19924;-70
2021/10/16 00:41:56;;;;;;;;;;;;;;;4.77;72.75;100146.75;5086201;28;19924;-69
2021/10/16 00:44:25;;;;;;;;;;;;;;;4.73;73.28;100142.56;5088591;28;20354;-69
2021/10/16 00:46:53;;;;;;;;;;;;;;;4.61;73.05;100136.09;5086085;28;20371;-69
2021/10/16 00:49:21;;;;;;;;;;;;;;;4.58;73.12;100131.78;5102030;28;19928;-69
2021/10/16 00:51:49;;;;;;;;;;;;;;;4.58;73.05;100123.78;5086921;28;19977;-69
2021/10/16 00:54:20;;;;;;;;;;;;;;;4.43;72.37;100119.31;5088160;28;19932;-69
2021/10/16 00:56:50;;;;;;;;;;;;;;;4.34;72.54;100125.13;5083948;28;20356;-69
2021/10/16 00:59:18;;;;;;;;;;;;;;;4.15;72.85;100122.53;5086450;28;19936;-69
2021/10/16 01:01:46;;;;;;;;;;;;;;;4.09;73.09;100114.03;5083123;28;20298;-69
2021/10/16 01:04:15;;;;;;;;;;;;;;;4.07;72.99;100123.88;5082021;28;19936;-69
2021/10/16 01:06:50;;;;;;;;;;;;;;;4.06;73.53;100123.03;5092485;28;19954;-69
2021/10/16 01:09:18;;;;;;;;;;;;;;;4.04;73.55;100130.22;5087312;28;20421;-69
2021/10/16 01:11:48;;;;;;;;;;;;;;;4.03;73.75;100136.47;5083917;28;19924;-70
2021/10/16 01:14:18;;;;;;;;;;;;;;;3.94;73.66;100140.41;5087705;28;19969;-69
2021/10/16 01:16:49;;;;;;;;;;;;;;;3.88;73.71;100146.03;5082175;28;19935;-69
2021/10/16 01:19:19;;;;;;;;;;;;;;;3.87;74.21;100151.44;5089062;28;20023;-69
2021/10/16 01:21:49;;;;;;;;;;;;;;;3.89;74.74;100146.91;5082962;28;19951;-69
2021/10/16 01:24:19;;;;;;;;;;;;;;;3.88;74.38;100150.50;5089208;28;19924;-70
2021/10/16 01:26:48;;;;;;;;;;;;;;;3.85;74.96;100140.88;5088598;28;20337;-70
2021/10/16 01:29:18;;;;;;;;;;;;;;;3.90;75.31;100156.59;5090204;28;19928;-69
2021/10/16 01:31:46;;;;;;;;;;;;;;;3.93;75.38;100148.47;5088693;28;20398;-69
2021/10/16 01:34:14;;;;;;;;;;;;;;;4.00;75.81;100150.75;5100997;28;19924;-69
2021/10/16 01:36:43;;;;;;;;;;;;;;;4.10;75.70;100150.28;5084202;28;20382;-69
2021/10/16 01:39:13;;;;;;;;;;;;;;;4.23;75.64;100140.75;5088947;28;19970;-69
2021/10/16 01:41:43;;;;;;;;;;;;;;;4.32;75.79;100150.91;5090118;28;19930;-69
2021/10/16 01:44:13;;;;;;;;;;;;;;;4.42;75.59;100140.66;5086369;28;20015;-69
2021/10/16 01:46:41;;;;;;;;;;;;;;;4.51;75.59;100141.03;5086736;28;19928;-70
2021/10/16 01:49:14;;;;;;;;;;;;;;;4.61;75.34;100142.28;5086335;28;19979;-69
2021/10/16 01:51:42;;;;;;;;;;;;;;;4.68;75.52;100138.34;5088785;28;20028;-69
2021/10/16 01:54:12;;;;;;;;;;;;;;;4.77;75.46;100141.44;5086766;28;19928;-69
2021/10/16 01:56:49;;;;;;;;;;;;;;;4.84;74.89;100142.81;5088531;28;19982;-69
2021/10/16 01:59:17;;;;;;;;;;;;;;;4.91;75.18;100133.59;5085527;28;19931;-69
2021/10/16 02:02:13;;;;;;;;;;;;;;;4.96;74.81;100135.06;5089581;28;19924;-69
2021/10/16 02:04:50;;;;;;;;;;;;;;;5.02;74.86;100130.34;5121879;27;19924;-70
2021/10/16 02:07:19;;;;;;;;;;;;;;;5.06;75.00;100132.75;5085545;28;19983;-74
2021/10/16 02:09:48;;;;;;;;;;;;;;;5.12;74.89;100134.19;5088310;28;19967;-74
2021/10/16 02:12:16;;;;;;;;;;;;;;;5.18;74.64;100131.19;5088081;28;19924;-74
2021/10/16 02:14:45;;;;;;;;;;;;;;;5.26;74.68;100134.31;5085706;28;19985;-74
2021/10/16 02:17:15;;;;;;;;;;;;;;;4.38;74.34;99988.47;5068080;28;19985;-74
2021/10/16 02:19:43;;;;;;;;;;;;;;;5.33;74.49;100124.16;5068069;28;19929;-74
2021/10/16 02:22:11;;;;;;;;;;;;;;;5.33;74.45;100141.00;5101631;28;19931;-73
2021/10/16 02:24:40;;;;;;;;;;;;;;;5.39;74.25;100134.47;5081567;28;19932;-74
2021/10/16 02:27:09;;;;;;;;;;;;;;;5.40;74.24;100130.88;5070644;28;19924;-73
2021/10/16 02:29:37;;;;;;;;;;;;;;;5.41;74.12;100138.75;5101289;28;19935;-73
2021/10/16 02:32:07;;;;;;;;;;;;;;;5.43;73.69;100136.00;5101275;28;20287;-74
2021/10/16 02:34:37;;;;;;;;;;;;;;;5.40;73.93;100139.72;5101398;28;19934;-74
2021/10/16 02:37:10;;;;;;;;;;;;;;;5.41;73.87;100137.91;5101481;28;19968;-74
2021/10/16 02:39:38;;;;;;;;;;;;;;;5.40;73.52;100146.84;5083981;28;19933;-74
2021/10/16 02:42:06;;;;;;;;;;;;;;;5.39;73.88;100129.16;5073087;28;20331;-74
2021/10/16 02:44:35;;;;;;;;;;;;;;;5.34;74.39;100126.75;5068503;28;19924;-74
2021/10/16 02:47:03;;;;;;;;;;;;;;;5.39;74.10;100129.16;5067600;28;19924;-74
2021/10/16 02:49:31;;;;;;;;;;;;;;;5.42;74.18;100131.63;5066953;28;19978;-74
2021/10/16 02:51:59;;;;;;;;;;;;;;;5.43;74.15;100136.00;5075824;28;20004;-74
2021/10/16 02:54:27;;;;;;;;;;;;;;;5.46;73.80;100135.84;5101392;27;20018;-74
2021/10/16 02:56:57;;;;;;;;;;;;;;;5.48;73.85;100139.25;5101152;28;19924;-74
2021/10/16 02:59:25;;;;;;;;;;;;;;;5.48;74.11;100149.91;5071286;28;19955;-74
2021/10/16 03:01:57;;;;;;;;;;;;;;;5.45;74.23;100142.97;5101068;28;19951;-74
2021/10/16 03:04:28;;;;;;;;;;;;;;;5.45;73.91;100134.97;5083745;28;19928;-74
2021/10/16 03:06:57;;;;;;;;;;;;;;;5.46;73.85;100139.34;5067201;28;19943;-73
2021/10/16 03:09:26;;;;;;;;;;;;;;;5.47;74.27;100132.22;5071604;28;20369;-74
2021/10/16 03:11:55;;;;;;;;;;;;;;;5.46;73.83;100133.16;5100631;28;19934;-74
2021/10/16 03:14:23;;;;;;;;;;;;;;;5.47;73.53;100137.56;5103639;28;20325;-74
2021/10/16 03:16:51;;;;;;;;;;;;;;;5.47;74.35;100148.19;5080227;28;20394;-74
2021/10/16 03:19:24;;;;;;;;;;;;;;;5.45;74.00;100134.97;5100525;28;19924;-74
2021/10/16 03:22:00;;;;;;;;;;;;;;;5.42;74.40;100135.16;5094487;28;19932;-74
2021/10/16 03:24:35;;;;;;;;;;;;;;;5.44;74.44;100132.41;5085843;28;20315;-74
2021/10/16 03:27:03;;;;;;;;;;;;;;;5.42;74.19;100129.81;5085884;28;19935;-74
2021/10/16 03:29:31;;;;;;;;;;;;;;;5.42;74.38;100129.81;5085929;28;20249;-74
2021/10/16 03:31:59;;;;;;;;;;;;;;;5.36;75.03;100118.66;5094871;28;19924;-74
2021/10/16 03:34:29;;;;;;;;;;;;;;;5.29;74.90;100129.66;5087260;28;20011;-74
2021/10/16 03:36:58;;;;;;;;;;;;;;;5.26;75.17;100119.19;5085432;28;19989;-74
2021/10/16 03:39:26;;;;;;;;;;;;;;;5.24;76.17;100115.75;5102921;28;19928;-74
2021/10/16 03:41:56;;;;;;;;;;;;;;;5.25;75.55;100122.81;5086942;28;20007;-74
2021/10/16 03:44:24;;;;;;;;;;;;;;;5.21;75.90;100121.25;5084731;28;19932;-74
2021/10/16 03:46:53;;;;;;;;;;;;;;;5.23;75.08;100118.50;5087122;28;19928;-74
2021/10/16 03:49:21;;;;;;;;;;;;;;;5.22;75.57;100112.34;5087526;28;19928;-70
2021/10/16 03:51:51;;;;;;;;;;;;;;;5.20;75.90;100108.91;5094693;28;20259;-69
2021/10/16 03:54:19;;;;;;;;;;;;;;;5.19;75.66;100117.81;5088306;28;19939;-68
2021/10/16 03:56:49;;;;;;;;;;;;;;;5.18;75.86;100113.41;5086676;28;19928;-73
2021/10/16 03:59:17;;;;;;;;;;;;;;;5.16;75.04;100107.31;5087356;28;20442;-73
2021/10/16 04:01:44;;;;;;;;;;;;;;;5.22;75.13;100115.00;5087820;28;19934;-69
2021/10/16 04:04:12;;;;;;;;;;;;;;;5.20;75.60;100106.25;5087364;28;20034;-73
2021/10/16 04:06:41;;;;;;;;;;;;;;;5.22;75.29;100106.16;5086559;28;19924;-68
2021/10/16 04:09:10;;;;;;;;;;;;;;;5.20;75.04;100100.03;5087864;28;19924;-73
2021/10/16 04:11:38;;;;;;;;;;;;;;;5.17;75.32;100097.53;5098573;28;19925;-73
2021/10/16 04:14:06;;;;;;;;;;;;;;;5.15;75.51;100088.78;5078961;28;20325;-72
2021/10/16 04:16:34;;;;;;;;;;;;;;;5.14;76.31;100087.94;5072441;28;20018;-73
2021/10/16 04:19:02;;;;;;;;;;;;;;;5.05;76.32;100088.44;5111738;27;19924;-72
2021/10/16 04:21:31;;;;;;;;;;;;;;;5.12;75.98;100079.19;5099994;28;19927;-73
2021/10/16 04:24:02;;;;;;;;;;;;;;;5.09;75.80;100079.34;5086674;28;19925;-73
2021/10/16 04:26:32;;;;;;;;;;;;;;;5.13;75.58;100080.88;5111687;27;19924;-73
2021/10/16 04:29:00;;;;;;;;;;;;;;;5.10;76.33;100081.06;5112106;27;20288;-73
2021/10/16 04:31:47;;;;;;;;;;;;;;;5.06;76.75;100079.53;5073927;28;20433;-73
2021/10/16 04:34:16;;;;;;;;;;;;;;;5.13;76.54;100080.88;5086794;28;19928;-73
2021/10/16 04:36:43;;;;;;;;;;;;;;;5.09;76.18;100079.34;5086830;28;20419;-73
2021/10/16 04:39:11;;;;;;;;;;;;;;;5.13;75.83;100088.88;5079304;28;19928;-72
2021/10/16 04:41:41;;;;;;;;;;;;;;;5.13;76.15;100090.69;5088381;28;20261;-73
2021/10/16 04:44:08;;;;;;;;;;;;;;;5.14;76.17;100084.41;5086963;28;20380;-73
2021/10/16 04:46:37;;;;;;;;;;;;;;;5.16;75.93;100091.34;5089479;28;20109;-73
2021/10/16 04:49:07;;;;;;;;;;;;;;;5.15;76.39;100089.66;5086031;28;19939;-73
2021/10/16 04:51:38;;;;;;;;;;;;;;;5.21;75.66;100084.00;5089236;28;20276;-73
2021/10/16 04:54:07;;;;;;;;;;;;;;;5.20;75.77;100078.72;5089425;28;19935;-73
2021/10/16 04:56:35;;;;;;;;;;;;;;;5.18;75.72;100084.16;5088999;28;19924;-73
2021/10/16 04:59:06;;;;;;;;;;;;;;;5.19;76.88;100077.88;5085972;28;20430;-73
2021/10/16 05:01:36;;;;;;;;;;;;;;;5.25;77.15;100084.69;5089016;28;19947;-73
2021/10/16 05:04:04;;;;;;;;;;;;;;;5.29;76.96;100081.75;5089930;28;20380;-73
2021/10/16 05:06:33;;;;;;;;;;;;;;;5.28;77.03;100074.72;5085421;28;19928;-73
2021/10/16 05:09:02;;;;;;;;;;;;;;;5.27;76.24;100067.69;5088093;28;19924;-73
2021/10/16 05:11:32;;;;;;;;;;;;;;;5.26;76.91;100076.59;5121629;27;19928;-74
2021/10/16 05:14:01;;;;;;;;;;;;;;;5.30;76.34;100072.81;5088170;28;19924;-69
2021/10/16 05:16:31;;;;;;;;;;;;;;;5.38;76.65;100071.53;5085095;28;20291;-69
2021/10/16 05:18:59;;;;;;;;;;;;;;;5.39;76.46;100074.09;5070431;28;19929;-69
2021/10/16 05:21:27;;;;;;;;;;;;;;;5.49;76.27;100066.44;5102886;28;19956;-69
2021/10/16 05:23:55;;;;;;;;;;;;;;;5.58;76.63;100076.56;5068683;28;19931;-69
2021/10/16 05:26:23;;;;;;;;;;;;;;;5.58;76.64;100073.91;5106700;27;20010;-69
2021/10/16 05:28:55;;;;;;;;;;;;;;;5.61;77.05;100063.94;5070189;28;20337;-69
2021/10/16 05:31:23;;;;;;;;;;;;;;;5.68;76.45;100067.09;5109101;27;19928;-69
2021/10/16 05:33:53;;;;;;;;;;;;;;;5.75;76.21;100071.09;5085426;28;19947;-69
2021/10/16 05:36:22;;;;;;;;;;;;;;;5.80;75.86;100065.50;5107421;27;20380;-70
2021/10/16 05:38:50;;;;;;;;;;;;;;;5.85;75.58;100060.78;5070037;28;19924;-70
2021/10/16 05:41:19;;;;;;;;;;;;;;;5.78;75.86;100065.59;5107045;27;19963;-69
2021/10/16 05:43:48;;;;;;;;;;;;;;;5.80;75.36;100058.34;5102520;28;19959;-69
2021/10/16 05:46:18;;;;;;;;;;;;;;;5.80;75.23;100065.50;5091450;28;19924;-69
2021/10/16 05:48:51;;;;;;;;;;;;;;;5.74;75.67;100066.72;5076578;28;19968;-69
2021/10/16 05:51:20;;;;;;;;;;;;;;;5.74;75.36;100066.72;5089208;28;19928;-69
2021/10/16 05:53:49;;;;;;;;;;;;;;;5.72;75.59;100063.28;5102121;28;19925;-69
2021/10/16 05:56:17;;;;;;;;;;;;;;;5.74;75.49;100061.38;5075610;28;19924;-69
2021/10/16 05:58:45;;;;;;;;;;;;;;;5.78;75.61;100067.38;5079128;28;19943;-69
2021/10/16 06:01:13;;;;;;;;;;;;;;;5.73;75.95;100066.81;5079303;28;19994;-68
2021/10/16 06:03:47;;;;;;;;;;;;;;;5.73;75.65;100064.16;5084677;28;19931;-68
2021/10/16 06:06:15;;;;;;;;;;;;;;;5.74;75.77;100064.06;5086257;28;20547;-69
2021/10/16 06:08:44;;;;;;;;;;;;;;;5.75;75.79;100062.25;5111758;27;19925;-68
2021/10/16 06:11:12;;;;;;;;;;;;;;;5.76;75.75;100064.81;5098438;28;20395;-68
2021/10/16 06:13:40;;;;;;;;;;;;;;;5.77;75.54;100061.22;5080071;28;20331;-68
2021/10/16 06:16:08;;;;;;;;;;;;;;;5.83;76.01;100066.19;5083936;28;19963;-69
2021/10/16 06:18:36;;;;;;;;;;;;;;;5.87;76.05;100062.41;5079300;28;20023;-69
2021/10/16 06:21:04;;;;;;;;;;;;;;;5.98;75.93;100074.25;5085645;28;20127;-68
2021/10/16 06:23:34;;;;;;;;;;;;;;;6.03;76.08;100067.69;5084545;28;20485;-70
2021/10/16 06:26:03;;;;;;;;;;;;;;;6.12;76.45;100066.25;5087463;28;19931;-69
2021/10/16 06:28:31;;;;;;;;;;;;;;;6.15;76.84;100069.63;5084971;28;20363;-70
2021/10/16 06:30:59;;;;;;;;;;;;;;;6.24;76.37;100070.88;5082577;28;19928;-70
2021/10/16 06:33:30;;;;;;;;;;;;;;;6.38;75.81;100073.53;5098949;27;20007;-70
2021/10/16 06:36:00;;;;;;;;;;;;;;;6.47;76.38;100072.16;5082451;28;19970;-70
2021/10/16 06:38:49;;;;;;;;;;;;;;;6.57;76.04;100065.28;5075440;28;20247;-71
2021/10/16 06:41:18;;;;;;;;;;;;;;;6.66;75.79;100066.50;5118278;27;19924;-71
2021/10/16 06:44:05;;;;;;;;;;;;;;;6.80;75.25;100077.19;5082654;28;20430;-71
2021/10/16 06:46:42;;;;;;;;;;;;;;;6.85;75.45;100075.94;5082916;28;19932;-71
2021/10/16 06:49:31;;;;;;;;;;;;;;;6.92;75.44;100079.06;5083599;28;20024;-68
2021/10/16 06:51:59;;;;;;;;;;;;;;;7.02;75.00;100079.31;5097367;28;19939;-68
2021/10/16 06:54:27;;;;;;;;;;;;;;;7.14;75.09;100076.75;5085265;28;19928;-67
2021/10/16 06:56:56;;;;;;;;;;;;;;;7.26;74.67;100071.56;5082070;28;19924;-68
2021/10/16 06:59:26;;;;;;;;;;;;;;;7.40;74.47;100076.88;5085281;28;19976;-68
2021/10/16 07:01:54;;;;;;;;;;;;;;;7.54;74.35;100075.94;5085047;28;20436;-68
2021/10/16 07:04:36;;;;;;;;;;;;;;;7.65;75.24;100079.66;5083163;28;20440;-68
2021/10/16 07:07:04;;;;;;;;;;;;;;;7.75;74.78;100072.72;5082242;28;19928;-68
2021/10/16 07:09:39;;;;;;;;;;;;;;;7.86;74.26;100076.47;5078859;28;20134;-68
2021/10/16 07:12:09;;;;;;;;;;;;;;;7.99;74.31;100088.06;5073639;28;19932;-68
2021/10/16 07:14:37;;;;;;;;;;;;;;;8.14;72.75;100089.69;5078399;28;20123;-68
2021/10/16 07:17:08;;;;;;;;;;;;;;;8.26;72.08;100087.97;5078616;28;20015;-68
2021/10/16 07:19:36;;;;;;;;;;;;;;;8.36;72.59;100089.13;5084436;28;19934;-68
2021/10/16 07:22:04;;;;;;;;;;;;;;;8.44;72.82;100092.09;5078220;28;19960;-68
2021/10/16 07:24:32;;;;;;;;;;;;;;;8.52;71.69;100097.78;5078918;28;19932;-71
2021/10/16 07:27:01;;;;;;;;;;;;;;;8.62;72.02;100095.34;5086662;28;20366;-71
2021/10/16 07:29:30;;;;;;;;;;;;;;;8.73;71.52;100100.78;5073629;28;19928;-71
2021/10/16 07:31:58;;;;;;;;;;;;;;;8.81;71.64;100100.22;5078321;28;19943;-71
2021/10/16 07:34:25;;;;;;;;;;;;;;;8.90;72.47;100103.13;5073022;28;20019;-71
2021/10/16 07:36:53;;;;;;;;;;;;;;;9.00;71.59;100098.81;5079919;28;19943;-71
2021/10/16 07:39:21;;;;;;;;;;;;;;;9.18;69.23;100095.75;5083403;28;20019;-71
2021/10/16 07:41:49;;;;;;;;;;;;;;;9.22;70.10;100094.59;5095586;28;19931;-72
2021/10/16 07:44:17;;;;;;;;;;;;;;;9.25;70.93;100097.91;5078102;28;19944;-72
2021/10/16 07:46:47;;;;;;;;;;;;;;;9.26;71.02;100094.25;5078524;28;20197;-72
2021/10/16 07:49:14;;;;;;;;;;;;;;;9.33;70.71;100102.69;5075055;28;20345;-72
2021/10/16 07:51:43;;;;;;;;;;;;;;;9.34;70.73;100097.22;5080677;28;19931;-72
2021/10/16 07:54:10;;;;;;;;;;;;;;;9.32;71.62;100101.00;5080864;28;19924;-72
2021/10/16 07:56:38;;;;;;;;;;;;;;;9.35;71.09;100098.09;5081701;28;19931;-72
2021/10/16 07:59:06;;;;;;;;;;;;;;;9.35;69.81;100098.09;5090102;28;19924;-72
2021/10/16 08:01:34;;;;;;;;;;;;;;;9.31;71.19;100089.41;5089552;28;19924;-72
2021/10/16 08:04:03;;;;;;;;;;;;;;;9.26;71.90;100098.75;5088448;28;20089;-72
2021/10/16 08:06:31;;;;;;;;;;;;;;;9.33;71.68;100094.66;5082848;28;19925;-72
2021/10/16 08:09:01;;;;;;;;;;;;;;;9.38;72.43;100092.50;5085255;28;19938;-72
2021/10/16 08:11:52;;;;;;;;;;;;;;;9.45;73.03;100093.75;5092635;28;19993;-72
2021/10/16 08:14:20;;;;;;;;;;;;;;;9.56;72.04;100091.16;5079545;28;19932;-72
2021/10/16 08:16:48;;;;;;;;;;;;;;;9.64;72.26;100090.56;5085496;28;19924;-72
2021/10/16 08:19:17;;;;;;;;;;;;;;;9.71;70.86;100082.94;5086579;28;20334;-72
2021/10/16 08:21:45;;;;;;;;;;;;;;;9.80;69.75;100083.09;5089158;28;19924;-72
2021/10/16 08:24:13;;;;;;;;;;;;;;;9.85;70.65;100080.94;5089314;28;19943;-72
2021/10/16 08:26:41;;;;;;;;;;;;;;;9.96;70.15;100082.78;5081959;28;20101;-72
2021/10/16 08:29:08;;;;;;;;;;;;;;;10.05;70.00;100075.84;5088076;28;19955;-72
2021/10/16 08:31:36;;;;;;;;;;;;;;;10.12;69.68;100085.19;5090157;28;19924;-72
2021/10/16 08:34:04;;;;;;;;;;;;;;;10.15;70.12;100084.94;5089834;28;20306;-72
2021/10/16 08:36:34;;;;;;;;;;;;;;;10.23;68.16;100083.41;5089791;28;19924;-72
2021/10/16 08:39:01;;;;;;;;;;;;;;;10.23;68.91;100090.59;5090054;28;19936;-72
2021/10/16 08:41:29;;;;;;;;;;;;;;;10.27;68.31;100092.91;5088675;28;19931;-72
2021/10/16 08:43:57;;;;;;;;;;;;;;;10.34;68.39;100093.28;5089828;28;19924;-72
2021/10/16 08:46:25;;;;;;;;;;;;;;;10.38;67.41;100089.41;5086493;28;19932;-72
2021/10/16 08:48:54;;;;;;;;;;;;;;;10.44;68.51;100094.31;5089657;28;19928;-72
2021/10/16 08:51:22;;;;;;;;;;;;;;;10.48;68.61;100097.63;5089590;28;19951;-72
2021/10/16 08:53:51;;;;;;;;;;;;;;;10.54;68.82;100089.94;5077867;28;19924;-72
2021/10/16 08:56:20;;;;;;;;;;;;;;;10.61;70.86;100082.25;5083438;28;20387;-72
2021/10/16 08:58:48;;;;;;;;;;;;;;;10.75;68.77;100092.75;5087709;28;19924;-72
2021/10/16 09:01:16;;;;;;;;;;;;;;;10.84;69.55;100078.59;5088256;28;20393;-72
2021/10/16 09:03:47;;;;;;;;;;;;;;;10.96;69.05;100084.81;5090325;28;19927;-72
2021/10/16 09:06:16;;;;;;;;;;;;;;;11.05;69.02;100083.25;5087607;28;19924;-72
2021/10/16 09:08:45;;;;;;;;;;;;;;;11.13;69.51;100076.25;5087464;28;19927;-72
2021/10/16 09:11:24;;;;;;;;;;;;;;;11.24;68.45;100072.69;5090437;28;19947;-72
2021/10/16 09:13:53;;;;;;;;;;;;;;;11.37;66.74;100086.00;5090730;28;20338;-72
2021/10/16 09:16:23;;;;;;;;;;;;;;;11.43;68.42;100082.81;5085605;28;20007;-72
2021/10/16 09:18:51;;;;;;;;;;;;;;;11.49;66.72;100077.78;5076586;28;19924;-72
2021/10/16 09:21:21;;;;;;;;;;;;;;;11.50;67.97;100076.78;5089375;28;20031;-72
2021/10/16 09:23:58;;;;;;;;;;;;;;;11.55;69.06;100087.16;5085519;28;19931;-72
2021/10/16 09:26:28;;;;;;;;;;;;;;;11.66;68.87;100068.31;5075954;28;19964;-72
2021/10/16 09:28:57;;;;;;;;;;;;;;;11.79;67.03;100074.41;5082207;28;20406;-68
2021/10/16 09:31:31;;;;;;;;;;;;;;;11.84;69.43;100074.03;5070604;28;20648;-72
2021/10/16 09:33:59;;;;;;;;;;;;;;;11.99;66.91;100088.91;5089017;28;20349;-72
2021/10/16 09:36:27;;;;;;;;;;;;;;;12.06;68.26;100079.31;5088020;28;19942;-72
2021/10/16 09:38:55;;;;;;;;;;;;;;;12.13;67.79;100080.50;5087890;28;19959;-72
2021/10/16 09:41:23;;;;;;;;;;;;;;;12.19;68.09;100062.97;5087613;28;19928;-72
2021/10/16 09:43:53;;;;;;;;;;;;;;;12.26;64.17;100072.25;5084698;28;19931;-71
2021/10/16 09:46:21;;;;;;;;;;;;;;;12.31;64.14;100070.00;5081595;28;20347;-72
2021/10/16 09:48:49;;;;;;;;;;;;;;;12.38;65.09;100065.78;5088121;28;20429;-72
2021/10/16 09:51:17;;;;;;;;;;;;;;;12.48;63.99;100070.38;5089508;28;20399;-72
2021/10/16 09:53:46;;;;;;;;;;;;;;;12.64;62.50;100060.84;5083376;28;20441;-71
2021/10/16 09:56:14;;;;;;;;;;;;;;;12.77;61.06;100051.66;5088153;28;20396;-71
2021/10/16 09:58:42;;;;;;;;;;;;;;;12.79;62.25;100055.06;5085547;28;20193;-71
2021/10/16 10:01:12;;;;;;;;;;;;;;;12.85;62.12;100068.00;5075417;28;19932;-71
2021/10/16 10:03:41;;;;;;;;;;;;;;;12.90;60.36;100044.22;5084190;28;20009;-71
2021/10/16 10:06:09;;;;;;;;;;;;;;;13.04;60.62;100060.84;5082744;28;19940;-71
2021/10/16 10:08:38;;;;;;;;;;;;;;;13.11;60.14;100063.00;5085072;28;19955;-71
2021/10/16 10:11:11;;;;;;;;;;;;;;;13.17;60.28;100059.78;5080867;28;19947;-71
2021/10/16 10:13:41;;;;;;;;;;;;;;;13.21;59.95;100064.78;5083405;28;19993;-71
2021/10/16 10:16:10;;;;;;;;;;;;;;;13.32;59.75;100055.72;5116126;27;19924;-70
2021/10/16 10:19:00;;;;;;;;;;;;;;;13.45;58.92;100067.09;5086010;28;19924;-71
2021/10/16 10:21:31;;;;;;;;;;;;;;;13.51;58.33;100047.69;5097837;28;20294;-71
2021/10/16 10:23:59;;;;;;;;;;;;;;;13.48;58.75;100047.13;5097618;28;19924;-71
2021/10/16 10:26:28;;;;;;;;;;;;;;;13.51;58.01;100053.06;5090596;28;19927;-71
2021/10/16 10:28:58;;;;;;;;;;;;;;;13.44;57.58;100056.44;5086661;28;20570;-71
2021/10/16 10:31:53;;;;;;;;;;;;;;;13.42;58.01;100080.00;5088461;28;20323;-70
2021/10/16 10:34:23;;;;;;;;;;;;;;;13.30;58.37;100071.19;5076816;28;19979;-71
2021/10/16 10:36:53;;;;;;;;;;;;;;;13.22;58.64;100079.13;5089845;28;19928;-71
2021/10/16 10:39:51;;;;;;;;;;;;;;;13.05;60.26;100072.50;5086021;28;19959;-71
2021/10/16 10:42:46;;;;;;;;;;;;;;;12.93;60.48;100060.13;5027818;28;19925;-71
2021/10/16 10:45:24;;;;;;;;;;;;;;;12.76;61.28;100069.69;5081987;28;19932;-72
2021/10/16 10:47:57;;;;;;;;;;;;;;;12.72;62.22;100068.25;5088927;28;19924;-71
2021/10/16 10:50:40;;;;;;;;;;;;;;;12.66;63.05;100058.88;5083508;28;19931;-70
2021/10/16 10:53:11;;;;;;;;;;;;;;;12.60;63.32;100062.09;5075985;28;19943;-71
2021/10/16 10:55:49;;;;;;;;;;;;;;;12.68;63.36;100051.50;5090062;28;19931;-70
2021/10/16 10:58:17;;;;;;;;;;;;;;;12.60;63.57;100047.78;5085228;28;19931;-70
2021/10/16 11:00:45;;;;;;;;;;;;;;;12.57;64.00;100048.91;5077730;28;20148;-70
2021/10/16 11:03:31;;;;;;;;;;;;;;;12.58;63.94;100045.22;5086841;28;19960;-71
2021/10/16 11:06:17;;;;;;;;;;;;;;;12.61;63.79;100039.56;5087315;28;19931;-70
2021/10/16 11:08:48;;;;;;;;;;;;;;;12.58;64.31;100034.44;5087886;28;19924;-70
2021/10/16 11:11:16;;;;;;;;;;;;;;;12.62;64.28;100032.34;5087956;28;20538;-70
2021/10/16 11:13:44;;;;;;;;;;;;;;;12.69;64.00;100037.03;5073572;28;19924;-69
2021/10/16 11:16:12;;;;;;;;;;;;;;;12.65;63.94;100043.69;5082536;28;19948;-69
2021/10/16 11:18:40;;;;;;;;;;;;;;;12.64;63.57;100031.22;5082588;28;19924;-70
2021/10/16 11:21:10;;;;;;;;;;;;;;;12.67;63.81;100044.41;5085710;28;20302;-70
2021/10/16 11:23:39;;;;;;;;;;;;;;;12.73;63.57;100038.47;5081918;28;19936;-70
2021/10/16 11:26:09;;;;;;;;;;;;;;;12.72;63.23;100031.38;5085341;28;19924;-70
2021/10/16 11:28:38;;;;;;;;;;;;;;;12.65;62.98;100032.91;5078211;28;19931;-70
2021/10/16 11:31:06;;;;;;;;;;;;;;;12.65;62.72;100034.75;5076397;28;19940;-70
2021/10/16 11:33:38;;;;;;;;;;;;;;;12.62;62.65;100030.50;5085681;28;19939;-70
2021/10/16 11:36:07;;;;;;;;;;;;;;;12.74;62.80;100024.00;5091085;28;19924;-70
2021/10/16 11:38:36;;;;;;;;;;;;;;;12.86;62.60;100018.53;5086239;28;20326;-70
2021/10/16 11:41:05;;;;;;;;;;;;;;;13.02;61.59;100022.41;5085615;28;19982;-70
2021/10/16 11:43:38;;;;;;;;;;;;;;;13.09;61.17;100028.09;5081657;28;19924;-69
2021/10/16 11:46:07;;;;;;;;;;;;;;;13.14;59.46;100020.44;5089583;28;19955;-71
2021/10/16 11:48:36;;;;;;;;;;;;;;;13.40;58.04;100010.03;5092309;28;20001;-73
2021/10/16 11:51:08;;;;;;;;;;;;;;;13.58;56.38;99996.72;5090739;28;19935;-68
2021/10/16 11:53:36;;;;;;;;;;;;;;;13.78;55.07;100009.22;5089358;28;19992;-70
2021/10/16 11:56:06;;;;;;;;;;;;;;;13.96;54.17;100017.44;5091458;28;19935;-70
2021/10/16 11:58:34;;;;;;;;;;;;;;;14.08;55.43;100020.81;5080683;28;19936;-71
2021/10/16 12:01:04;;;;;;;;;;;;;;;14.12;56.33;100024.94;5091717;28;19928;-71
2021/10/16 12:03:33;;;;;;;;;;;;;;;13.97;59.11;100019.97;5085335;28;19928;-71
2021/10/16 12:06:06;;;;;;;;;;;;;;;13.92;58.78;100024.97;5081299;28;20346;-72
2021/10/16 12:08:41;;;;;;;;;;;;;;;13.94;59.19;100031.06;5084364;28;20295;-72
2021/10/16 12:11:15;;;;;;;;;;;;;;;13.82;61.94;100032.22;5083472;28;19966;-72
2021/10/16 12:13:44;;;;;;;;;;;;;;;13.90;61.19;100021.56;5078338;28;20351;-72
2021/10/16 12:16:14;;;;;;;;;;;;;;;13.91;61.22;100028.66;5079166;28;20014;-71
2021/10/16 12:18:49;;;;;;;;;;;;;;;13.87;60.43;100032.63;5074179;28;19924;-72
2021/10/16 12:21:25;;;;;;;;;;;;;;;13.66;61.21;100045.41;5088577;28;20391;-71
2021/10/16 12:23:53;;;;;;;;;;;;;;;13.61;62.01;100044.97;5086051;28;20023;-72
2021/10/16 12:26:22;;;;;;;;;;;;;;;13.55;61.93;100045.56;5087555;28;19977;-72
2021/10/16 12:28:50;;;;;;;;;;;;;;;13.43;62.98;100036.72;5083723;28;20283;-71
2021/10/16 12:31:20;;;;;;;;;;;;;;;13.55;62.06;100030.22;5085369;28;19961;-72
2021/10/16 12:34:12;;;;;;;;;;;;;;;13.62;63.02;100027.81;5085860;28;20024;-72
2021/10/16 12:36:41;;;;;;;;;;;;;;;13.79;63.28;100020.88;5082244;28;19935;-71
2021/10/16 12:39:10;;;;;;;;;;;;;;;13.89;62.71;100027.09;5076484;28;20412;-73
2021/10/16 12:41:47;;;;;;;;;;;;;;;13.96;61.84;100012.88;5083204;28;19975;-72
2021/10/16 12:44:17;;;;;;;;;;;;;;;13.83;61.07;100022.28;5083499;28;20324;-71
2021/10/16 12:46:50;;;;;;;;;;;;;;;13.91;62.25;100025.97;5087882;28;19928;-72
2021/10/16 12:49:35;;;;;;;2.30;0.50;;;;;;;13.93;62.52;100023.97;5087964;28;20897;-72
2021/10/16 12:52:23;;;;;;;1.37;0.73;;;;;;;13.76;62.63;100021.97;5082391;28;20214;-72
2021/10/16 12:54:52;;;;;;;1.77;0.70;;;;;;;13.74;62.10;100032.06;5073899;28;20201;-71
2021/10/16 12:57:21;;;;;;;0.57;0.57;;;;;;;13.65;62.32;100035.59;5087771;28;20206;-72
2021/10/16 12:59:49;;;;;;;3.50;0.70;;;;;;;13.65;62.52;100060.75;5086000;28;20523;-71